createdAt,value
2019-01-17T00:00:42.690Z,6.11
2019-01-17T00:01:41.711Z,6.28
2019-01-17T00:02:39.629Z,6.26
2019-01-17T00:03:42.176Z,6.28
2019-01-17T00:04:43.057Z,6.16
2019-01-17T00:05:43.789Z,6.24
2019-01-17T00:06:42.856Z,6.30
2019-01-17T00:07:42.645Z,6.17
2019-01-17T00:08:42.560Z,6.17
2019-01-17T00:09:43.032Z,6.09
2019-01-17T00:10:43.096Z,6.11
2019-01-17T00:11:45.283Z,6.07
2019-01-17T00:12:41.256Z,6.14
2019-01-17T00:13:43.333Z,6.16
2019-01-17T00:14:44.352Z,6.19
2019-01-17T00:15:45.606Z,6.20
2019-01-17T00:16:43.611Z,6.28
2019-01-17T00:17:44.180Z,6.17
2019-01-17T00:18:42.279Z,6.14
2019-01-17T00:19:42.408Z,6.20
2019-01-17T00:20:45.624Z,6.16
2019-01-17T00:21:45.310Z,6.22
2019-01-17T00:22:46.735Z,6.19
2019-01-17T00:23:44.397Z,6.19
2019-01-17T00:24:46.341Z,6.20
2019-01-17T00:25:43.472Z,6.16
2019-01-17T00:26:44.156Z,6.19
2019-01-17T00:27:46.464Z,6.16
2019-01-17T00:28:47.940Z,6.17
2019-01-17T00:29:43.971Z,6.26
2019-01-17T00:30:46.768Z,6.33
2019-01-17T00:31:47.235Z,6.26
2019-01-17T00:32:47.802Z,6.24
2019-01-17T00:33:47.198Z,6.28
2019-01-17T00:34:48.305Z,6.20
2019-01-17T00:35:48.566Z,6.20
2019-01-17T00:36:48.343Z,6.26
2019-01-17T00:37:49.900Z,6.26
2019-01-17T00:38:50.585Z,6.11
2019-01-17T00:39:45.746Z,6.16
2019-01-17T00:40:49.544Z,6.22
2019-01-17T00:41:50.512Z,6.20
2019-01-17T00:42:52.378Z,6.20
2019-01-17T00:43:51.541Z,6.28
2019-01-17T00:44:50.238Z,6.35
2019-01-17T00:45:51.443Z,6.35
2019-01-17T00:46:49.808Z,6.22
2019-01-17T00:47:49.477Z,6.28
2019-01-17T00:48:51.314Z,6.33
2019-01-17T00:49:47.224Z,6.36
2019-01-17T00:50:51.865Z,6.31
2019-01-17T00:51:51.274Z,6.38
2019-01-17T00:52:51.163Z,6.41
2019-01-17T00:53:52.311Z,6.39
2019-01-17T00:54:52.685Z,6.39
2019-01-17T00:55:52.375Z,6.36
2019-01-17T00:56:53.867Z,6.39
2019-01-17T00:57:52.975Z,6.52
2019-01-17T00:58:52.526Z,6.57
2019-01-17T00:59:48.899Z,6.49
2019-01-17T01:00:52.241Z,6.52
2019-01-17T01:01:52.952Z,6.57
2019-01-17T01:02:53.221Z,6.54
2019-01-17T01:03:53.302Z,6.60
2019-01-17T01:04:49.741Z,6.63
2019-01-17T01:05:54.379Z,6.70
2019-01-17T01:06:54.057Z,6.63
2019-01-17T01:07:53.937Z,6.63
2019-01-17T01:08:53.691Z,6.59
2019-01-17T01:09:52.240Z,6.64
2019-01-17T01:10:54.482Z,6.67
2019-01-17T01:11:54.113Z,6.78
2019-01-17T01:12:53.565Z,6.63
2019-01-17T01:13:55.495Z,6.62
2019-01-17T01:14:50.960Z,6.63
2019-01-17T01:15:54.960Z,6.64
2019-01-17T01:16:54.882Z,6.54
2019-01-17T01:17:54.327Z,6.56
2019-01-17T01:18:57.565Z,6.52
2019-01-17T01:19:54.371Z,6.56
2019-01-17T01:20:51.834Z,6.57
2019-01-17T01:21:54.847Z,6.60
2019-01-17T01:22:52.159Z,6.46
2019-01-17T01:23:53.110Z,6.46
2019-01-17T01:24:52.421Z,6.51
2019-01-17T01:25:57.407Z,6.48
2019-01-17T01:26:52.713Z,6.51
2019-01-17T01:27:52.875Z,6.41
2019-01-17T01:29:04.436Z,6.57
2019-01-17T01:29:54.051Z,6.51
2019-01-17T01:30:53.349Z,6.48
2019-01-17T01:31:57.591Z,6.39
2019-01-17T01:32:57.656Z,6.41
2019-01-17T01:33:53.793Z,6.38
2019-01-17T01:34:53.969Z,6.42
2019-01-17T01:35:58.483Z,6.38
2019-01-17T01:36:54.301Z,6.41
2019-01-17T01:37:55.226Z,6.31
2019-01-17T01:38:54.573Z,6.24
2019-01-17T01:39:58.191Z,6.31
2019-01-17T01:40:54.956Z,6.27
2019-01-17T01:41:55.128Z,6.27
2019-01-17T01:42:55.703Z,6.27
2019-01-17T01:43:55.438Z,6.26
2019-01-17T01:44:58.396Z,6.19
2019-01-17T01:45:55.785Z,6.17
2019-01-17T01:46:56.022Z,6.19
2019-01-17T01:47:56.065Z,6.22
2019-01-17T01:49:00.660Z,6.28
2019-01-17T01:49:58.555Z,6.28
2019-01-17T01:51:00.321Z,6.26
2019-01-17T01:51:58.683Z,6.38
2019-01-17T01:52:56.845Z,6.31
2019-01-17T01:53:56.999Z,6.30
2019-01-17T01:55:00.744Z,6.33
2019-01-17T01:55:57.328Z,6.35
2019-01-17T01:56:57.524Z,6.36
2019-01-17T01:57:57.663Z,6.38
2019-01-17T01:58:57.836Z,6.38
2019-01-17T01:59:58.019Z,6.46
2019-01-17T02:00:58.205Z,6.54
2019-01-17T02:01:58.370Z,6.51
2019-01-17T02:03:02.015Z,6.48
2019-01-17T02:03:58.712Z,6.52
2019-01-17T02:05:00.583Z,6.52
2019-01-17T02:05:59.058Z,6.51
2019-01-17T02:07:02.794Z,6.51
2019-01-17T02:07:59.355Z,6.57
2019-01-17T02:09:01.927Z,6.60
2019-01-17T02:10:03.315Z,6.57
2019-01-17T02:11:02.598Z,6.51
2019-01-17T02:12:02.512Z,6.60
2019-01-17T02:13:02.403Z,6.52
2019-01-17T02:14:00.140Z,6.51
2019-01-17T02:15:02.332Z,6.41
2019-01-17T02:16:00.409Z,6.51
2019-01-17T02:17:00.637Z,6.45
2019-01-17T02:18:00.685Z,6.33
2019-01-17T02:19:03.884Z,6.38
2019-01-17T02:20:01.037Z,6.48
2019-01-17T02:21:01.223Z,6.35
2019-01-17T02:22:01.433Z,6.44
2019-01-17T02:23:01.621Z,6.54
2019-01-17T02:24:04.035Z,6.44
2019-01-17T02:25:05.358Z,6.51
2019-01-17T02:26:02.143Z,6.49
2019-01-17T02:27:04.364Z,6.39
2019-01-17T02:28:03.067Z,6.35
2019-01-17T02:29:02.651Z,6.48
2019-01-17T02:30:06.000Z,6.36
2019-01-17T02:31:05.269Z,6.28
2019-01-17T02:32:07.303Z,6.30
2019-01-17T02:33:03.275Z,6.35
2019-01-17T02:34:03.479Z,6.35
2019-01-17T02:35:03.524Z,6.33
2019-01-17T02:36:05.107Z,6.42
2019-01-17T02:37:05.552Z,6.41
2019-01-17T02:38:04.567Z,6.49
2019-01-17T02:39:05.703Z,6.41
2019-01-17T02:40:04.345Z,6.36
2019-01-17T02:41:06.913Z,6.42
2019-01-17T02:42:04.615Z,6.44
2019-01-17T02:43:04.771Z,6.42
2019-01-17T02:44:04.946Z,6.31
2019-01-17T02:45:05.113Z,6.41
2019-01-17T02:46:05.273Z,6.42
2019-01-17T02:47:05.431Z,6.39
2019-01-17T02:48:07.918Z,6.39
2019-01-17T02:49:07.133Z,6.35
2019-01-17T02:50:07.857Z,6.30
2019-01-17T02:51:07.711Z,6.33
2019-01-17T02:52:08.742Z,6.31
2019-01-17T02:53:15.158Z,6.31
2019-01-17T02:54:06.901Z,6.30
2019-01-17T02:55:06.623Z,6.24
2019-01-17T02:56:06.795Z,6.33
2019-01-17T02:57:09.600Z,6.35
2019-01-17T02:58:07.163Z,6.36
2019-01-17T02:59:08.890Z,6.52
2019-01-17T03:00:07.511Z,6.51
2019-01-17T03:01:07.830Z,6.51
2019-01-17T03:02:07.777Z,6.49
2019-01-17T03:03:09.874Z,6.60
2019-01-17T03:04:09.273Z,6.56
2019-01-17T03:05:08.257Z,6.72
2019-01-17T03:06:08.727Z,6.66
2019-01-17T03:07:08.635Z,6.70
2019-01-17T03:08:09.854Z,6.63
2019-01-17T03:09:10.878Z,6.77
2019-01-17T03:10:10.043Z,6.67
2019-01-17T03:11:11.321Z,6.72
2019-01-17T03:12:09.336Z,6.72
2019-01-17T03:13:09.524Z,6.70
2019-01-17T03:14:11.470Z,6.70
2019-01-17T03:15:11.285Z,6.66
2019-01-17T03:16:11.174Z,6.69
2019-01-17T03:17:11.854Z,6.72
2019-01-17T03:18:12.231Z,6.79
2019-01-17T03:19:11.175Z,6.87
2019-01-17T03:20:12.859Z,6.81
2019-01-17T03:21:11.250Z,6.72
2019-01-17T03:22:10.924Z,6.60
2019-01-17T03:23:11.130Z,6.60
2019-01-17T03:24:13.663Z,6.63
2019-01-17T03:25:11.404Z,6.67
2019-01-17T03:26:14.849Z,6.63
2019-01-17T03:27:11.737Z,6.60
2019-01-17T03:28:11.902Z,6.66
2019-01-17T03:29:12.071Z,6.74
2019-01-17T03:30:12.291Z,6.72
2019-01-17T03:31:16.728Z,6.62
2019-01-17T03:32:24.404Z,6.56
2019-01-17T03:33:16.765Z,6.59
2019-01-17T03:34:23.940Z,6.60
2019-01-17T03:35:16.619Z,6.56
2019-01-17T03:36:16.089Z,6.60
2019-01-17T03:37:17.993Z,6.63
2019-01-17T03:38:17.335Z,6.57
2019-01-17T03:39:17.048Z,6.48
2019-01-17T03:40:16.711Z,6.62
2019-01-17T03:41:14.147Z,6.56
2019-01-17T03:42:16.471Z,6.60
2019-01-17T03:43:15.934Z,6.60
2019-01-17T03:44:15.998Z,6.60
2019-01-17T03:45:14.598Z,6.63
2019-01-17T03:46:14.779Z,6.72
2019-01-17T03:47:15.072Z,6.57
2019-01-17T03:48:15.253Z,6.74
2019-01-17T03:49:15.387Z,6.70
2019-01-17T03:50:15.575Z,6.74
2019-01-17T03:51:15.636Z,6.66
2019-01-17T03:52:15.822Z,6.72
2019-01-17T03:53:16.011Z,6.77
2019-01-17T03:54:16.170Z,6.84
2019-01-17T03:55:16.250Z,6.85
2019-01-17T03:56:21.631Z,6.75
2019-01-17T03:57:16.828Z,6.69
2019-01-17T03:58:16.768Z,6.78
2019-01-17T03:59:17.003Z,6.74
2019-01-17T04:00:17.288Z,6.88
2019-01-17T04:01:17.362Z,6.87
2019-01-17T04:02:17.474Z,6.85
2019-01-17T04:03:17.569Z,6.88
2019-01-17T04:04:17.761Z,6.85
2019-01-17T04:05:17.845Z,6.93
2019-01-17T04:06:18.157Z,6.88
2019-01-17T04:07:18.255Z,6.96
2019-01-17T04:08:18.489Z,6.84
2019-01-17T04:09:18.562Z,6.92
2019-01-17T04:10:18.759Z,6.85
2019-01-17T04:11:18.970Z,6.84
2019-01-17T04:12:19.190Z,6.88
2019-01-17T04:13:19.366Z,6.96
2019-01-17T04:14:19.640Z,6.85
2019-01-17T04:15:19.786Z,6.85
2019-01-17T04:16:19.895Z,6.92
2019-01-17T04:17:20.159Z,6.88
2019-01-17T04:18:20.187Z,6.84
2019-01-17T04:19:20.244Z,6.87
2019-01-17T04:20:20.428Z,6.88
2019-01-17T04:21:20.764Z,6.85
2019-01-17T04:22:20.839Z,6.88
2019-01-17T04:23:20.968Z,6.84
2019-01-17T04:24:21.138Z,6.93
2019-01-17T04:25:21.215Z,6.92
2019-01-17T04:26:21.468Z,7.00
2019-01-17T04:27:21.586Z,7.00
2019-01-17T04:28:21.844Z,6.97
2019-01-17T04:29:21.932Z,6.93
2019-01-17T04:30:22.218Z,7.03
2019-01-17T04:31:22.302Z,7.00
2019-01-17T04:32:22.549Z,7.05
2019-01-17T04:33:22.704Z,7.10
2019-01-17T04:34:22.808Z,7.00
2019-01-17T04:35:22.983Z,7.00
2019-01-17T04:36:23.178Z,6.97
2019-01-17T04:37:23.184Z,6.99
2019-01-17T04:38:23.285Z,7.00
2019-01-17T04:39:23.384Z,7.06
2019-01-17T04:40:23.477Z,7.02
2019-01-17T04:41:23.763Z,6.99
2019-01-17T04:42:23.807Z,6.88
2019-01-17T04:43:24.016Z,6.85
2019-01-17T04:44:24.254Z,6.95
2019-01-17T04:45:24.330Z,6.96
2019-01-17T04:46:24.540Z,6.99
2019-01-17T04:47:24.748Z,6.87
2019-01-17T04:48:24.943Z,6.96
2019-01-17T04:49:25.106Z,6.99
2019-01-17T04:50:25.245Z,6.97
2019-01-17T04:51:25.303Z,6.96
2019-01-17T04:52:25.579Z,6.95
2019-01-17T04:53:25.645Z,6.81
2019-01-17T04:54:25.732Z,6.88
2019-01-17T04:55:26.058Z,6.84
2019-01-17T04:56:26.284Z,6.85
2019-01-17T04:57:26.931Z,6.93
2019-01-17T04:58:26.518Z,6.85
2019-01-17T04:59:26.755Z,6.84
2019-01-17T05:00:26.907Z,6.92
2019-01-17T05:01:27.082Z,6.99
2019-01-17T05:02:27.294Z,6.97
2019-01-17T05:03:27.492Z,7.02
2019-01-17T05:04:27.660Z,6.88
2019-01-17T05:05:27.812Z,6.92
2019-01-17T05:06:27.924Z,6.97
2019-01-17T05:07:28.147Z,6.95
2019-01-17T05:08:28.323Z,6.97
2019-01-17T05:09:28.412Z,7.03
2019-01-17T05:10:28.865Z,6.96
2019-01-17T05:11:28.792Z,7.02
2019-01-17T05:12:28.901Z,7.07
2019-01-17T05:13:29.025Z,7.06
2019-01-17T05:14:29.123Z,6.95
2019-01-17T05:15:29.214Z,6.99
2019-01-17T05:16:29.426Z,6.97
2019-01-17T05:17:29.693Z,6.81
2019-01-17T05:18:29.707Z,6.89
2019-01-17T05:19:29.868Z,6.84
2019-01-17T05:20:30.905Z,6.85
2019-01-17T05:21:30.127Z,6.69
2019-01-17T05:22:30.301Z,6.74
2019-01-17T05:23:30.437Z,6.79
2019-01-17T05:24:30.660Z,6.85
2019-01-17T05:25:30.730Z,6.85
2019-01-17T05:26:30.848Z,6.82
2019-01-17T05:27:30.912Z,6.81
2019-01-17T05:28:31.168Z,6.79
2019-01-17T05:29:31.261Z,6.89
2019-01-17T05:30:31.506Z,6.93
2019-01-17T05:31:31.620Z,6.87
2019-01-17T05:32:36.716Z,6.89
2019-01-17T05:33:31.794Z,6.97
2019-01-17T05:34:38.964Z,6.89
2019-01-17T05:35:32.084Z,6.89
2019-01-17T05:36:32.304Z,6.85
2019-01-17T05:37:32.541Z,6.92
2019-01-17T05:38:32.599Z,6.87
2019-01-17T05:39:32.829Z,6.72
2019-01-17T05:40:33.033Z,6.84
2019-01-17T05:41:33.333Z,6.79
2019-01-17T05:42:33.440Z,6.77
2019-01-17T05:43:33.773Z,6.78
2019-01-17T05:44:33.788Z,6.77
2019-01-17T05:45:34.019Z,6.85
2019-01-17T05:46:33.961Z,6.84
2019-01-17T05:47:34.243Z,6.89
2019-01-17T05:48:34.310Z,6.84
2019-01-17T05:49:34.567Z,6.84
2019-01-17T05:50:34.727Z,6.81
2019-01-17T05:51:34.787Z,6.75
2019-01-17T05:52:35.188Z,6.81
2019-01-17T05:53:35.133Z,6.82
2019-01-17T05:54:35.228Z,6.78
2019-01-17T05:55:35.507Z,6.87
2019-01-17T05:56:35.637Z,6.84
2019-01-17T05:57:35.801Z,6.82
2019-01-17T05:58:35.964Z,6.93
2019-01-17T05:59:36.085Z,6.84
2019-01-17T06:00:36.246Z,6.93
2019-01-17T06:01:36.335Z,6.85
2019-01-17T06:02:36.416Z,6.78
2019-01-17T06:03:36.614Z,6.72
2019-01-17T06:04:36.816Z,6.72
2019-01-17T06:05:37.141Z,6.75
2019-01-17T06:06:37.300Z,6.82
2019-01-17T06:07:42.119Z,6.85
2019-01-17T06:08:37.607Z,6.84
2019-01-17T06:09:37.702Z,6.88
2019-01-17T06:10:37.892Z,6.84
2019-01-17T06:11:38.028Z,6.75
2019-01-17T06:12:38.215Z,6.69
2019-01-17T06:13:39.920Z,6.82
2019-01-17T06:14:38.525Z,6.84
2019-01-17T06:15:38.648Z,6.84
2019-01-17T06:16:38.721Z,6.82
2019-01-17T06:17:39.053Z,6.85
2019-01-17T06:18:41.237Z,6.92
2019-01-17T06:19:44.509Z,6.92
2019-01-17T06:20:41.291Z,6.87
2019-01-17T06:21:41.535Z,6.87
2019-01-17T06:22:39.688Z,6.88
2019-01-17T06:23:39.808Z,6.99
2019-01-17T06:24:40.032Z,6.89
2019-01-17T06:25:40.110Z,6.87
2019-01-17T06:26:40.173Z,6.89
2019-01-17T06:27:40.368Z,6.88
2019-01-17T06:28:40.743Z,6.87
2019-01-17T06:29:40.890Z,6.87
2019-01-17T06:30:40.896Z,6.89
2019-01-17T06:31:41.210Z,6.88
2019-01-17T06:32:41.169Z,6.84
2019-01-17T06:33:41.267Z,6.88
2019-01-17T06:34:43.942Z,6.88
2019-01-17T06:35:41.524Z,6.92
2019-01-17T06:36:41.758Z,6.96
2019-01-17T06:37:41.814Z,7.02
2019-01-17T06:38:42.025Z,6.99
2019-01-17T06:39:42.380Z,6.99
2019-01-17T06:40:42.407Z,6.92
2019-01-17T06:41:42.552Z,6.85
2019-01-17T06:42:42.655Z,6.93
2019-01-17T06:43:42.749Z,6.96
2019-01-17T06:44:42.967Z,7.03
2019-01-17T06:45:43.202Z,6.96
2019-01-17T06:46:46.988Z,7.02
2019-01-17T06:47:43.401Z,7.02
2019-01-17T06:48:43.617Z,7.06
2019-01-17T06:49:45.194Z,7.06
2019-01-17T06:50:43.850Z,7.03
2019-01-17T06:51:44.051Z,7.03
2019-01-17T06:52:44.435Z,6.99
2019-01-17T06:53:44.384Z,6.99
2019-01-17T06:54:44.739Z,7.06
2019-01-17T06:55:44.743Z,6.96
2019-01-17T06:56:44.813Z,7.00
2019-01-17T06:57:45.029Z,7.00
2019-01-17T06:58:45.177Z,7.02
2019-01-17T06:59:45.399Z,7.03
2019-01-17T07:00:45.477Z,7.00
2019-01-17T07:01:45.897Z,6.97
2019-01-17T07:02:47.409Z,6.92
2019-01-17T07:03:46.062Z,6.93
2019-01-17T07:04:46.183Z,6.88
2019-01-17T07:05:46.417Z,7.00
2019-01-17T07:06:46.450Z,6.87
2019-01-17T07:07:48.474Z,6.87
2019-01-17T07:08:46.850Z,7.00
2019-01-17T07:09:46.950Z,7.06
2019-01-17T07:10:47.037Z,7.03
2019-01-17T07:11:47.395Z,7.03
2019-01-17T07:12:47.445Z,7.15
2019-01-17T07:13:47.843Z,7.11
2019-01-17T07:14:49.679Z,6.96
2019-01-17T07:15:49.928Z,7.06
2019-01-17T07:16:50.889Z,7.11
2019-01-17T07:17:48.321Z,7.15
2019-01-17T07:18:48.522Z,7.07
2019-01-17T07:19:48.754Z,7.02
2019-01-17T07:20:50.784Z,7.14
2019-01-17T07:21:50.028Z,7.11
2019-01-17T07:23:05.254Z,7.20
2019-01-17T07:23:51.740Z,7.15
2019-01-17T07:24:49.410Z,7.14
2019-01-17T07:25:52.907Z,7.14
2019-01-17T07:26:51.564Z,7.11
2019-01-17T07:27:52.437Z,7.14
2019-01-17T07:29:15.581Z,7.13
2019-01-17T07:29:51.744Z,7.11
2019-01-17T07:30:59.205Z,7.15
2019-01-17T07:31:54.620Z,7.13
2019-01-17T07:32:50.723Z,7.18
2019-01-17T07:33:50.921Z,7.11
2019-01-17T07:34:51.061Z,7.10
2019-01-17T07:35:51.218Z,7.14
2019-01-17T07:36:51.379Z,7.14
2019-01-17T07:37:51.553Z,7.18
2019-01-17T07:38:51.738Z,7.20
2019-01-17T07:39:51.873Z,7.13
2019-01-17T07:40:52.044Z,7.18
2019-01-17T07:41:52.212Z,7.13
2019-01-17T07:42:52.427Z,7.14
2019-01-17T07:43:52.537Z,7.17
2019-01-17T07:44:52.713Z,7.14
2019-01-17T07:45:52.953Z,7.11
2019-01-17T07:46:53.053Z,7.14
2019-01-17T07:47:53.223Z,7.29
2019-01-17T07:48:54.457Z,7.32
2019-01-17T07:49:53.508Z,7.35
2019-01-17T07:50:53.681Z,7.17
2019-01-17T07:51:53.864Z,7.17
2019-01-17T07:52:54.024Z,7.15
2019-01-17T07:53:54.192Z,7.24
2019-01-17T07:54:54.355Z,7.24
2019-01-17T07:55:57.128Z,7.31
2019-01-17T07:56:54.712Z,7.28
2019-01-17T07:57:54.853Z,7.24
2019-01-17T07:58:55.033Z,7.31
2019-01-17T07:59:55.193Z,7.28
2019-01-17T08:00:55.426Z,7.20
2019-01-17T08:01:55.545Z,7.32
2019-01-17T08:02:56.295Z,7.29
2019-01-17T08:03:55.899Z,7.36
2019-01-17T08:04:58.053Z,7.36
2019-01-17T08:05:56.272Z,7.31
2019-01-17T08:06:56.817Z,7.32
2019-01-17T08:07:56.600Z,7.31
2019-01-17T08:08:56.808Z,7.32
2019-01-17T08:09:56.959Z,7.31
2019-01-17T08:10:59.073Z,7.36
2019-01-17T08:11:57.277Z,7.32
2019-01-17T08:12:57.584Z,7.25
2019-01-17T08:13:58.776Z,7.29
2019-01-17T08:14:57.825Z,7.39
2019-01-17T08:15:58.138Z,7.33
2019-01-17T08:16:58.186Z,7.38
2019-01-17T08:17:58.392Z,7.40
2019-01-17T08:19:00.742Z,7.39
2019-01-17T08:19:58.683Z,7.32
2019-01-17T08:20:58.838Z,7.39
2019-01-17T08:21:59.030Z,7.40
2019-01-17T08:22:59.173Z,7.39
2019-01-17T08:23:59.349Z,7.38
2019-01-17T08:24:59.541Z,7.43
2019-01-17T08:25:59.686Z,7.47
2019-01-17T08:26:59.870Z,7.43
2019-01-17T08:28:00.042Z,7.45
2019-01-17T08:29:00.222Z,7.42
2019-01-17T08:30:00.377Z,7.38
2019-01-17T08:31:00.588Z,7.38
2019-01-17T08:32:00.735Z,7.42
2019-01-17T08:33:00.924Z,7.33
2019-01-17T08:34:02.368Z,7.43
2019-01-17T08:35:01.263Z,7.48
2019-01-17T08:36:01.441Z,7.31
2019-01-17T08:37:02.989Z,7.42
2019-01-17T08:38:01.812Z,7.40
2019-01-17T08:39:02.042Z,7.50
2019-01-17T08:40:03.237Z,7.54
2019-01-17T08:41:02.355Z,7.51
2019-01-17T08:42:02.518Z,7.48
2019-01-17T08:43:02.707Z,7.48
2019-01-17T08:44:02.897Z,7.51
2019-01-17T08:45:02.979Z,7.47
2019-01-17T08:46:03.151Z,7.50
2019-01-17T08:47:03.350Z,7.54
2019-01-17T08:48:03.515Z,7.48
2019-01-17T08:49:03.686Z,7.53
2019-01-17T08:50:04.287Z,7.51
2019-01-17T08:51:05.220Z,7.45
2019-01-17T08:52:05.211Z,7.45
2019-01-17T08:53:06.310Z,7.50
2019-01-17T08:54:05.148Z,7.43
2019-01-17T08:55:06.391Z,7.48
2019-01-17T08:56:05.863Z,7.48
2019-01-17T08:57:08.003Z,7.32
2019-01-17T08:58:05.333Z,7.35
2019-01-17T08:59:06.596Z,7.40
2019-01-17T09:00:05.942Z,7.45
2019-01-17T09:01:05.719Z,7.53
2019-01-17T09:02:05.895Z,7.43
2019-01-17T09:03:06.162Z,7.50
2019-01-17T09:04:06.274Z,7.56
2019-01-17T09:05:06.368Z,7.56
2019-01-17T09:06:06.500Z,7.66
2019-01-17T09:07:06.826Z,7.54
2019-01-17T09:08:09.897Z,7.47
2019-01-17T09:09:43.422Z,7.50
2019-01-17T09:10:09.639Z,7.48
2019-01-17T09:14:54.079Z,7.57
2019-01-17T09:15:17.567Z,7.66
2019-01-17T09:16:20.670Z,7.73
2019-01-17T09:17:16.938Z,7.66
2019-01-17T09:18:18.654Z,7.67
2019-01-17T09:22:38.803Z,7.66
2019-01-17T09:31:36.850Z,7.69
2019-01-17T09:32:28.341Z,7.61
2019-01-17T09:33:55.619Z,7.72
2019-01-17T09:35:28.525Z,7.83
2019-01-17T09:36:29.269Z,7.90
2019-01-17T09:37:28.207Z,7.95
2019-01-17T09:38:30.772Z,8.00
2019-01-17T09:39:30.819Z,8.00
2019-01-17T09:40:32.988Z,8.00
2019-01-17T09:41:28.631Z,7.97
2019-01-17T09:42:27.430Z,7.97
2019-01-17T09:43:27.601Z,7.97
2019-01-17T09:44:27.815Z,8.01
2019-01-17T09:45:27.871Z,7.97
2019-01-17T09:46:28.063Z,7.95
2019-01-17T09:47:28.225Z,7.95
2019-01-17T09:48:31.595Z,8.00
2019-01-17T09:49:30.344Z,7.94
2019-01-17T09:50:56.998Z,7.97
2019-01-17T09:51:30.523Z,7.94
2019-01-17T09:52:28.876Z,7.98
2019-01-17T09:55:14.761Z,8.08
2019-01-17T09:56:14.824Z,8.05
2019-01-17T09:57:06.850Z,8.01
2019-01-17T09:58:04.059Z,8.06
2019-01-17T09:59:27.006Z,8.10
2019-01-17T10:00:03.811Z,8.08
2019-01-17T10:01:01.903Z,8.09
2019-01-17T10:02:02.061Z,8.13
2019-01-17T10:03:02.333Z,8.20
2019-01-17T10:04:05.940Z,8.12
2019-01-17T10:06:51.865Z,8.18
2019-01-17T10:07:44.456Z,8.13
2019-01-17T10:08:43.694Z,8.19
2019-01-17T10:09:55.711Z,8.15
2019-01-17T10:10:44.809Z,8.10
2019-01-17T10:11:45.474Z,8.10
2019-01-17T10:12:44.849Z,8.06
2019-01-17T10:13:44.062Z,8.01
2019-01-17T10:14:44.079Z,8.10
2019-01-17T10:15:55.309Z,8.15
2019-01-17T10:16:45.222Z,8.09
2019-01-17T10:17:44.578Z,8.13
2019-01-17T10:18:46.668Z,8.05
2019-01-17T10:19:44.466Z,8.03
2019-01-17T10:21:00.367Z,8.13
2019-01-17T10:21:44.811Z,8.19
2019-01-17T10:22:44.784Z,8.26
2019-01-17T10:23:47.657Z,8.15
2019-01-17T10:24:49.064Z,8.26
2019-01-17T10:25:45.159Z,8.33
2019-01-17T10:26:45.491Z,8.41
2019-01-17T10:27:45.629Z,8.45
2019-01-17T10:28:45.904Z,8.52
2019-01-17T10:30:13.569Z,8.56
2019-01-17T10:31:16.300Z,8.82
2019-01-17T10:32:15.470Z,8.78
2019-01-17T10:32:46.360Z,8.88
2019-01-17T10:33:46.559Z,8.84
2019-01-17T10:34:49.645Z,8.84
2019-01-17T10:35:48.665Z,8.87
2019-01-17T10:36:50.787Z,8.85
2019-01-17T10:37:54.640Z,8.88
2019-01-17T10:38:50.231Z,8.71
2019-01-17T10:39:49.380Z,8.84
2019-01-17T10:40:47.566Z,8.79
2019-01-17T10:41:58.941Z,8.91
2019-01-17T10:42:54.633Z,8.84
2019-01-17T10:43:50.593Z,8.88
2019-01-17T10:44:48.610Z,8.97
2019-01-17T10:45:52.247Z,8.99
2019-01-17T10:46:48.791Z,8.94
2019-01-17T10:47:49.054Z,8.88
2019-01-17T10:48:49.006Z,8.87
2019-01-17T10:49:57.073Z,8.88
2019-01-17T10:54:00.895Z,8.82
2019-01-17T10:55:28.153Z,8.79
2019-01-17T10:55:57.607Z,8.67
2019-01-17T10:57:01.008Z,8.70
2019-01-17T10:57:56.978Z,8.79
2019-01-17T10:58:55.314Z,8.79
2019-01-17T10:59:55.496Z,8.76
2019-01-17T11:00:58.934Z,8.88
2019-01-17T11:02:17.828Z,8.79
2019-01-17T11:03:02.085Z,8.78
2019-01-17T11:04:00.438Z,8.66
2019-01-17T11:04:57.959Z,8.76
2019-01-17T11:05:56.380Z,8.82
2019-01-17T11:06:56.731Z,8.74
2019-01-17T11:07:56.695Z,8.92
2019-01-17T11:08:57.027Z,8.92
2019-01-17T11:09:57.037Z,8.91
2019-01-17T11:10:57.264Z,8.87
2019-01-17T11:12:01.609Z,8.76
2019-01-17T11:12:59.396Z,8.99
2019-01-17T11:14:21.400Z,8.88
2019-01-17T11:15:00.029Z,8.82
2019-01-17T11:15:59.995Z,8.74
2019-01-17T11:17:00.009Z,8.73
2019-01-17T11:17:59.337Z,8.74
2019-01-17T11:19:02.564Z,8.69
2019-01-17T11:19:58.666Z,8.58
2019-01-17T11:21:02.769Z,8.61
2019-01-17T11:22:02.968Z,8.60
2019-01-17T11:23:00.906Z,8.53
2019-01-17T11:23:59.315Z,8.46
2019-01-17T11:24:59.395Z,8.48
2019-01-17T11:29:07.705Z,8.10
2019-01-17T11:30:43.367Z,8.01
2019-01-17T11:31:42.218Z,7.95
2019-01-17T11:32:10.496Z,8.00
2019-01-17T11:33:29.612Z,8.01
2019-01-17T11:34:30.733Z,8.09
2019-01-17T11:42:29.558Z,8.00
2019-01-17T11:43:19.579Z,8.12
2019-01-17T11:44:17.814Z,8.16
2019-01-17T11:45:17.829Z,8.08
2019-01-17T11:46:23.114Z,8.12
2019-01-17T11:47:45.561Z,8.09
2019-01-17T11:49:54.176Z,8.05
2019-01-17T11:51:03.862Z,8.05
2019-01-17T11:53:26.324Z,8.10
2019-01-17T11:56:11.759Z,7.95
2019-01-17T11:58:34.104Z,8.20
2019-01-17T11:59:34.953Z,8.34
2019-01-17T12:00:28.723Z,8.30
2019-01-17T12:01:28.891Z,8.76
2019-01-17T12:02:29.132Z,9.23
2019-01-17T12:03:31.886Z,9.62
2019-01-17T12:04:29.232Z,9.91
2019-01-17T12:05:29.446Z,9.89
2019-01-17T12:06:29.569Z,9.77
2019-01-17T12:07:29.784Z,10.02
2019-01-17T12:08:29.882Z,10.23
2019-01-17T12:09:30.063Z,10.30
2019-01-17T12:10:30.322Z,10.71
2019-01-17T12:11:30.582Z,10.78
2019-01-17T12:12:30.571Z,10.82
2019-01-17T12:13:30.830Z,10.99
2019-01-17T12:14:30.957Z,11.07
2019-01-17T12:15:31.310Z,10.75
2019-01-17T12:16:31.363Z,10.72
2019-01-17T12:17:31.484Z,10.37
2019-01-17T12:18:31.798Z,10.33
2019-01-17T12:19:32.008Z,10.20
2019-01-17T12:20:31.824Z,10.13
2019-01-17T12:21:31.921Z,10.04
2019-01-17T12:22:32.021Z,9.73
2019-01-17T12:23:32.167Z,9.56
2019-01-17T12:24:32.234Z,9.43
2019-01-17T12:25:32.366Z,9.46
2019-01-17T12:26:32.559Z,9.40
2019-01-17T12:27:32.791Z,9.39
2019-01-17T12:28:32.934Z,9.23
2019-01-17T12:29:33.113Z,9.16
2019-01-17T12:30:33.163Z,9.18
2019-01-17T12:31:33.415Z,9.16
2019-01-17T12:32:33.562Z,9.14
2019-01-17T12:33:33.720Z,9.10
2019-01-17T12:34:33.996Z,9.13
2019-01-17T12:35:34.232Z,9.08
2019-01-17T12:36:34.468Z,9.10
2019-01-17T12:37:34.340Z,9.13
2019-01-17T12:38:34.518Z,9.08
2019-01-17T12:39:35.077Z,9.06
2019-01-17T12:40:35.204Z,9.08
2019-01-17T12:41:35.115Z,9.03
2019-01-17T12:42:35.174Z,9.02
2019-01-17T12:43:35.462Z,9.03
2019-01-17T12:44:35.482Z,9.03
2019-01-17T12:45:35.582Z,9.16
2019-01-17T12:46:35.823Z,9.08
2019-01-17T12:47:35.996Z,9.00
2019-01-17T12:48:36.331Z,9.11
2019-01-17T12:49:36.286Z,9.23
2019-01-17T12:50:36.542Z,9.32
2019-01-17T12:51:36.636Z,9.23
2019-01-17T12:52:36.823Z,9.23
2019-01-17T12:53:36.933Z,9.11
2019-01-17T12:54:37.117Z,9.11
2019-01-17T12:55:37.461Z,9.18
2019-01-17T12:56:37.844Z,9.16
2019-01-17T12:57:37.688Z,9.25
2019-01-17T12:58:37.713Z,9.31
2019-01-17T12:59:38.013Z,9.40
2019-01-17T13:00:38.023Z,9.39
2019-01-17T13:01:38.149Z,9.21
2019-01-17T13:02:38.773Z,9.26
2019-01-17T13:03:38.522Z,9.23
2019-01-17T13:04:38.667Z,9.19
2019-01-17T13:05:38.813Z,9.26
2019-01-17T13:06:38.917Z,9.23
2019-01-17T13:07:40.876Z,9.18
2019-01-17T13:08:39.203Z,9.23
2019-01-17T13:09:39.329Z,9.26
2019-01-17T13:10:39.507Z,9.19
2019-01-17T13:11:39.613Z,9.18
2019-01-17T13:12:39.685Z,9.11
2019-01-17T13:13:39.855Z,9.02
2019-01-17T13:14:40.054Z,8.89
2019-01-17T13:15:40.199Z,9.03
2019-01-17T13:16:40.386Z,8.95
2019-01-17T13:17:40.570Z,9.03
2019-01-17T13:18:40.736Z,9.03
2019-01-17T13:19:41.002Z,9.11
2019-01-17T13:20:41.060Z,9.18
2019-01-17T13:21:41.233Z,9.13
2019-01-17T13:22:41.494Z,9.14
2019-01-17T13:23:41.556Z,9.37
2019-01-17T13:24:41.747Z,9.40
2019-01-17T13:25:41.903Z,9.50
2019-01-17T13:26:42.087Z,9.62
2019-01-17T13:27:42.289Z,9.44
2019-01-17T13:28:42.454Z,9.44
2019-01-17T13:29:42.629Z,9.32
2019-01-17T13:30:42.796Z,9.23
2019-01-17T13:31:42.962Z,9.28
2019-01-17T13:32:43.142Z,9.16
2019-01-17T13:33:43.309Z,9.18
2019-01-17T13:34:43.468Z,9.11
2019-01-17T13:35:44.958Z,9.02
2019-01-17T13:36:43.734Z,9.04
2019-01-17T13:37:43.919Z,8.92
2019-01-17T13:38:44.135Z,8.85
2019-01-17T13:39:44.324Z,8.73
2019-01-17T13:40:44.958Z,8.94
2019-01-17T13:41:44.745Z,9.03
2019-01-17T13:42:45.148Z,8.95
2019-01-17T13:43:45.048Z,8.84
2019-01-17T13:44:45.148Z,8.82
2019-01-17T13:45:45.453Z,8.89
2019-01-17T13:46:45.495Z,9.00
2019-01-17T13:47:45.647Z,9.16
2019-01-17T13:48:45.816Z,9.14
2019-01-17T13:49:45.977Z,9.13
2019-01-17T13:50:46.170Z,9.16
2019-01-17T13:51:46.925Z,9.11
2019-01-17T13:52:46.493Z,9.18
2019-01-17T13:53:46.678Z,9.14
2019-01-17T13:54:46.842Z,9.10
2019-01-17T13:55:47.028Z,9.10
2019-01-17T13:56:48.208Z,9.13
2019-01-17T13:57:47.383Z,8.92